sensor_id;sensor_type;location;lat;lon;timestamp;temperature;humidity
67273;DHT22;54190;49.770;9.250;2023-09-19T00:00:19;17.10;99.90
67273;DHT22;54190;49.770;9.250;2023-09-19T00:02:58;17.10;99.90
67273;DHT22;54190;49.770;9.250;2023-09-19T00:05:28;17.10;99.90
67273;DHT22;54190;49.770;9.250;2023-09-19T00:07:56;17.10;99.90
67273;DHT22;54190;49.770;9.250;2023-09-19T00:10:27;17.10;99.90
67273;DHT22;54190;49.770;9.250;2023-09-19T00:12:56;17.10;99.90
67273;DHT22;54190;49.770;9.250;2023-09-19T00:15:25;17.10;99.90
67273;DHT22;54190;49.770;9.250;2023-09-19T00:17:54;17.00;99.90
67273;DHT22;54190;49.770;9.250;2023-09-19T00:20:20;17.00;99.90
67273;DHT22;54190;49.770;9.250;2023-09-19T00:22:49;17.00;99.90
67273;DHT22;54190;49.770;9.250;2023-09-19T00:25:19;17.00;99.90
67273;DHT22;54190;49.770;9.250;2023-09-19T00:27:46;17.00;99.90
67273;DHT22;54190;49.770;9.250;2023-09-19T00:30:17;17.00;99.90
67273;DHT22;54190;49.770;9.250;2023-09-19T00:32:50;17.00;99.90
67273;DHT22;54190;49.770;9.250;2023-09-19T00:35:20;16.90;99.90
67273;DHT22;54190;49.770;9.250;2023-09-19T00:37:46;16.90;99.90
67273;DHT22;54190;49.770;9.250;2023-09-19T00:40:12;16.90;99.90
67273;DHT22;54190;49.770;9.250;2023-09-19T00:42:44;17.00;99.90
67273;DHT22;54190;49.770;9.250;2023-09-19T00:45:12;17.00;99.90
67273;DHT22;54190;49.770;9.250;2023-09-19T00:47:48;17.00;99.90
67273;DHT22;54190;49.770;9.250;2023-09-19T00:50:18;17.10;99.90
67273;DHT22;54190;49.770;9.250;2023-09-19T00:52:46;17.10;99.90
67273;DHT22;54190;49.770;9.250;2023-09-19T00:55:14;17.10;99.90
67273;DHT22;54190;49.770;9.250;2023-09-19T00:57:41;17.10;99.90
67273;DHT22;54190;49.770;9.250;2023-09-19T01:00:08;17.10;99.90
67273;DHT22;54190;49.770;9.250;2023-09-19T01:02:37;17.10;99.90
67273;DHT22;54190;49.770;9.250;2023-09-19T01:05:04;17.10;99.90
67273;DHT22;54190;49.770;9.250;2023-09-19T01:07:32;17.10;99.90
67273;DHT22;54190;49.770;9.250;2023-09-19T01:09:59;17.10;99.90
67273;DHT22;54190;49.770;9.250;2023-09-19T01:12:37;17.10;99.90
67273;DHT22;54190;49.770;9.250;2023-09-19T01:17:57;17.10;99.90
67273;DHT22;54190;49.770;9.250;2023-09-19T01:31:31;17.10;99.90
67273;DHT22;54190;49.770;9.250;2023-09-19T01:34:01;17.00;99.90
67273;DHT22;54190;49.770;9.250;2023-09-19T01:36:31;17.10;99.90
67273;DHT22;54190;49.770;9.250;2023-09-19T01:39:05;17.00;99.90
67273;DHT22;54190;49.770;9.250;2023-09-19T01:41:49;17.10;99.90
67273;DHT22;54190;49.770;9.250;2023-09-19T01:44:31;17.10;99.90
67273;DHT22;54190;49.770;9.250;2023-09-19T01:47:06;17.10;99.90
67273;DHT22;54190;49.770;9.250;2023-09-19T01:49:48;17.20;99.90
67273;DHT22;54190;49.770;9.250;2023-09-19T01:52:17;17.20;99.90
67273;DHT22;54190;49.770;9.250;2023-09-19T01:54:53;17.30;99.90
67273;DHT22;54190;49.770;9.250;2023-09-19T01:57:49;17.30;99.90
67273;DHT22;54190;49.770;9.250;2023-09-19T02:00:18;17.30;99.90
67273;DHT22;54190;49.770;9.250;2023-09-19T02:02:47;17.30;99.90
67273;DHT22;54190;49.770;9.250;2023-09-19T02:05:14;17.30;99.90
67273;DHT22;54190;49.770;9.250;2023-09-19T02:07:48;17.30;99.90
67273;DHT22;54190;49.770;9.250;2023-09-19T02:10:16;17.40;99.90
67273;DHT22;54190;49.770;9.250;2023-09-19T02:12:42;17.30;99.90
67273;DHT22;54190;49.770;9.250;2023-09-19T02:15:08;17.30;99.90
67273;DHT22;54190;49.770;9.250;2023-09-19T02:17:34;17.30;99.90
67273;DHT22;54190;49.770;9.250;2023-09-19T02:20:00;17.30;99.90
67273;DHT22;54190;49.770;9.250;2023-09-19T02:22:26;17.30;99.90
67273;DHT22;54190;49.770;9.250;2023-09-19T02:24:52;17.30;99.90
67273;DHT22;54190;49.770;9.250;2023-09-19T02:27:19;17.20;99.90
67273;DHT22;54190;49.770;9.250;2023-09-19T02:29:45;17.20;99.90
67273;DHT22;54190;49.770;9.250;2023-09-19T02:32:10;17.20;99.90
67273;DHT22;54190;49.770;9.250;2023-09-19T02:34:37;17.30;99.90
67273;DHT22;54190;49.770;9.250;2023-09-19T02:37:07;17.20;99.90
67273;DHT22;54190;49.770;9.250;2023-09-19T02:39:34;17.20;99.90
67273;DHT22;54190;49.770;9.250;2023-09-19T02:42:01;17.20;99.90
67273;DHT22;54190;49.770;9.250;2023-09-19T02:44:27;17.30;99.90
67273;DHT22;54190;49.770;9.250;2023-09-19T02:46:53;17.30;99.90
67273;DHT22;54190;49.770;9.250;2023-09-19T02:49:18;17.30;99.90
67273;DHT22;54190;49.770;9.250;2023-09-19T02:51:44;17.30;99.90
67273;DHT22;54190;49.770;9.250;2023-09-19T02:54:11;17.30;99.90
67273;DHT22;54190;49.770;9.250;2023-09-19T02:56:37;17.20;99.90
67273;DHT22;54190;49.770;9.250;2023-09-19T02:59:03;17.20;99.90
67273;DHT22;54190;49.770;9.250;2023-09-19T03:01:29;17.20;99.90
67273;DHT22;54190;49.770;9.250;2023-09-19T03:03:55;17.20;99.90
67273;DHT22;54190;49.770;9.250;2023-09-19T03:06:22;17.20;99.90
67273;DHT22;54190;49.770;9.250;2023-09-19T03:08:49;17.10;99.90
67273;DHT22;54190;49.770;9.250;2023-09-19T03:11:18;17.10;99.90
67273;DHT22;54190;49.770;9.250;2023-09-19T03:13:55;17.10;99.90
67273;DHT22;54190;49.770;9.250;2023-09-19T03:16:21;17.10;99.90
67273;DHT22;54190;49.770;9.250;2023-09-19T03:18:49;17.10;99.90
67273;DHT22;54190;49.770;9.250;2023-09-19T03:21:16;17.10;99.90
67273;DHT22;54190;49.770;9.250;2023-09-19T03:23:43;17.10;99.90
67273;DHT22;54190;49.770;9.250;2023-09-19T03:26:14;17.10;99.90
67273;DHT22;54190;49.770;9.250;2023-09-19T03:28:41;17.10;99.90
67273;DHT22;54190;49.770;9.250;2023-09-19T03:31:16;17.10;99.90
67273;DHT22;54190;49.770;9.250;2023-09-19T03:33:42;17.10;99.90
67273;DHT22;54190;49.770;9.250;2023-09-19T03:36:07;17.00;99.90
67273;DHT22;54190;49.770;9.250;2023-09-19T03:38:34;17.10;99.90
67273;DHT22;54190;49.770;9.250;2023-09-19T03:41:01;17.00;99.90
67273;DHT22;54190;49.770;9.250;2023-09-19T03:43:27;17.00;99.90
67273;DHT22;54190;49.770;9.250;2023-09-19T03:45:53;17.00;99.90
67273;DHT22;54190;49.770;9.250;2023-09-19T03:48:21;17.00;99.90
67273;DHT22;54190;49.770;9.250;2023-09-19T03:50:47;16.90;99.90
67273;DHT22;54190;49.770;9.250;2023-09-19T03:53:13;16.90;99.90
67273;DHT22;54190;49.770;9.250;2023-09-19T03:55:39;16.90;99.90
67273;DHT22;54190;49.770;9.250;2023-09-19T03:58:05;16.90;99.90
67273;DHT22;54190;49.770;9.250;2023-09-19T04:00:31;16.80;99.90
67273;DHT22;54190;49.770;9.250;2023-09-19T04:02:58;16.80;99.90
67273;DHT22;54190;49.770;9.250;2023-09-19T04:05:24;16.80;99.90
67273;DHT22;54190;49.770;9.250;2023-09-19T04:07:50;16.70;99.90
67273;DHT22;54190;49.770;9.250;2023-09-19T04:10:16;16.70;99.90
67273;DHT22;54190;49.770;9.250;2023-09-19T04:12:51;16.70;99.90
67273;DHT22;54190;49.770;9.250;2023-09-19T04:15:18;16.70;99.90
67273;DHT22;54190;49.770;9.250;2023-09-19T04:17:43;16.60;99.90
67273;DHT22;54190;49.770;9.250;2023-09-19T04:20:09;16.60;99.90
67273;DHT22;54190;49.770;9.250;2023-09-19T04:22:37;16.60;99.90
67273;DHT22;54190;49.770;9.250;2023-09-19T04:25:05;16.50;99.90
67273;DHT22;54190;49.770;9.250;2023-09-19T04:27:32;16.50;99.90
67273;DHT22;54190;49.770;9.250;2023-09-19T04:29:58;16.40;99.90
67273;DHT22;54190;49.770;9.250;2023-09-19T04:32:28;16.40;99.90
67273;DHT22;54190;49.770;9.250;2023-09-19T04:34:53;16.30;99.90
67273;DHT22;54190;49.770;9.250;2023-09-19T04:37:19;16.30;99.90
67273;DHT22;54190;49.770;9.250;2023-09-19T04:39:46;16.30;99.90
67273;DHT22;54190;49.770;9.250;2023-09-19T04:42:13;16.30;99.90
67273;DHT22;54190;49.770;9.250;2023-09-19T04:44:39;16.20;99.90
67273;DHT22;54190;49.770;9.250;2023-09-19T04:47:05;16.20;99.90
67273;DHT22;54190;49.770;9.250;2023-09-19T04:49:31;16.20;99.90
67273;DHT22;54190;49.770;9.250;2023-09-19T04:51:57;16.20;99.90
67273;DHT22;54190;49.770;9.250;2023-09-19T04:54:22;16.10;99.90
67273;DHT22;54190;49.770;9.250;2023-09-19T04:56:48;16.10;99.90
67273;DHT22;54190;49.770;9.250;2023-09-19T04:59:14;16.10;99.90
67273;DHT22;54190;49.770;9.250;2023-09-19T05:01:40;16.10;99.90
67273;DHT22;54190;49.770;9.250;2023-09-19T05:04:06;16.00;99.90
67273;DHT22;54190;49.770;9.250;2023-09-19T05:06:32;16.00;99.90
67273;DHT22;54190;49.770;9.250;2023-09-19T05:08:58;15.90;99.90
67273;DHT22;54190;49.770;9.250;2023-09-19T05:11:25;15.90;99.90
67273;DHT22;54190;49.770;9.250;2023-09-19T05:13:51;15.90;99.90
67273;DHT22;54190;49.770;9.250;2023-09-19T05:16:18;15.90;99.90
67273;DHT22;54190;49.770;9.250;2023-09-19T05:18:44;15.80;99.90
67273;DHT22;54190;49.770;9.250;2023-09-19T05:21:10;15.80;99.90
67273;DHT22;54190;49.770;9.250;2023-09-19T05:23:36;15.80;99.90
67273;DHT22;54190;49.770;9.250;2023-09-19T05:26:02;15.80;99.90
67273;DHT22;54190;49.770;9.250;2023-09-19T05:28:29;15.80;99.90
67273;DHT22;54190;49.770;9.250;2023-09-19T05:30:55;15.80;99.90
67273;DHT22;54190;49.770;9.250;2023-09-19T05:33:21;15.80;99.90
67273;DHT22;54190;49.770;9.250;2023-09-19T05:35:50;15.80;99.90
67273;DHT22;54190;49.770;9.250;2023-09-19T05:38:16;15.80;99.90
67273;DHT22;54190;49.770;9.250;2023-09-19T05:40:45;15.80;99.90
67273;DHT22;54190;49.770;9.250;2023-09-19T05:43:10;15.80;99.90
67273;DHT22;54190;49.770;9.250;2023-09-19T05:45:36;15.80;99.90
67273;DHT22;54190;49.770;9.250;2023-09-19T05:48:10;15.80;99.90
67273;DHT22;54190;49.770;9.250;2023-09-19T05:50:37;15.90;99.90
67273;DHT22;54190;49.770;9.250;2023-09-19T05:53:03;15.80;99.90
67273;DHT22;54190;49.770;9.250;2023-09-19T05:55:30;15.80;99.90
67273;DHT22;54190;49.770;9.250;2023-09-19T05:57:55;15.80;99.90
67273;DHT22;54190;49.770;9.250;2023-09-19T06:00:22;15.90;99.90
67273;DHT22;54190;49.770;9.250;2023-09-19T06:02:52;15.90;99.90
67273;DHT22;54190;49.770;9.250;2023-09-19T06:05:18;15.90;99.90
67273;DHT22;54190;49.770;9.250;2023-09-19T06:07:44;15.80;99.90
67273;DHT22;54190;49.770;9.250;2023-09-19T06:10:10;15.80;99.90
67273;DHT22;54190;49.770;9.250;2023-09-19T06:12:42;15.80;99.90
67273;DHT22;54190;49.770;9.250;2023-09-19T06:15:11;15.90;99.90
67273;DHT22;54190;49.770;9.250;2023-09-19T06:17:53;15.90;99.90
67273;DHT22;54190;49.770;9.250;2023-09-19T06:20:21;15.90;99.90
67273;DHT22;54190;49.770;9.250;2023-09-19T06:22:48;15.90;99.90
67273;DHT22;54190;49.770;9.250;2023-09-19T06:25:15;15.90;99.90
67273;DHT22;54190;49.770;9.250;2023-09-19T06:27:45;15.90;99.90
67273;DHT22;54190;49.770;9.250;2023-09-19T06:30:11;15.90;99.90
67273;DHT22;54190;49.770;9.250;2023-09-19T06:32:37;15.90;99.90
67273;DHT22;54190;49.770;9.250;2023-09-19T06:35:04;15.90;99.90
67273;DHT22;54190;49.770;9.250;2023-09-19T06:37:32;15.80;99.90
67273;DHT22;54190;49.770;9.250;2023-09-19T06:40:00;15.80;99.90
67273;DHT22;54190;49.770;9.250;2023-09-19T06:42:25;15.80;99.90
67273;DHT22;54190;49.770;9.250;2023-09-19T06:44:51;15.90;99.90
67273;DHT22;54190;49.770;9.250;2023-09-19T06:47:17;15.90;99.90
67273;DHT22;54190;49.770;9.250;2023-09-19T06:49:42;16.00;99.90
67273;DHT22;54190;49.770;9.250;2023-09-19T06:52:09;16.00;99.90
67273;DHT22;54190;49.770;9.250;2023-09-19T06:54:35;16.00;99.90
67273;DHT22;54190;49.770;9.250;2023-09-19T06:57:01;16.00;99.90
67273;DHT22;54190;49.770;9.250;2023-09-19T06:59:27;16.00;99.90
67273;DHT22;54190;49.770;9.250;2023-09-19T07:01:52;16.10;99.90
67273;DHT22;54190;49.770;9.250;2023-09-19T07:04:18;16.10;99.90
67273;DHT22;54190;49.770;9.250;2023-09-19T07:06:49;16.10;99.90
67273;DHT22;54190;49.770;9.250;2023-09-19T07:09:15;16.20;99.90
67273;DHT22;54190;49.770;9.250;2023-09-19T07:11:41;16.20;99.90
67273;DHT22;54190;49.770;9.250;2023-09-19T07:14:08;16.20;99.90
67273;DHT22;54190;49.770;9.250;2023-09-19T07:16:37;16.30;99.90
67273;DHT22;54190;49.770;9.250;2023-09-19T07:19:04;16.30;99.90
67273;DHT22;54190;49.770;9.250;2023-09-19T07:21:30;16.30;99.90
67273;DHT22;54190;49.770;9.250;2023-09-19T07:23:56;16.30;99.90
67273;DHT22;54190;49.770;9.250;2023-09-19T07:26:21;16.30;99.90
67273;DHT22;54190;49.770;9.250;2023-09-19T07:28:47;16.40;99.90
67273;DHT22;54190;49.770;9.250;2023-09-19T07:31:13;16.40;99.90
67273;DHT22;54190;49.770;9.250;2023-09-19T07:33:39;16.30;99.90
67273;DHT22;54190;49.770;9.250;2023-09-19T07:36:06;16.40;99.90
67273;DHT22;54190;49.770;9.250;2023-09-19T07:38:34;16.40;99.90
67273;DHT22;54190;49.770;9.250;2023-09-19T07:41:01;16.40;99.90
67273;DHT22;54190;49.770;9.250;2023-09-19T07:43:28;16.40;99.90
67273;DHT22;54190;49.770;9.250;2023-09-19T07:45:53;16.40;99.90
67273;DHT22;54190;49.770;9.250;2023-09-19T07:48:19;16.30;99.90
67273;DHT22;54190;49.770;9.250;2023-09-19T07:50:44;16.30;99.90
67273;DHT22;54190;49.770;9.250;2023-09-19T07:53:11;16.40;99.90
67273;DHT22;54190;49.770;9.250;2023-09-19T07:55:39;16.40;99.90
67273;DHT22;54190;49.770;9.250;2023-09-19T07:58:07;16.40;99.90
67273;DHT22;54190;49.770;9.250;2023-09-19T08:00:32;16.40;99.90
67273;DHT22;54190;49.770;9.250;2023-09-19T08:03:00;16.50;99.90
67273;DHT22;54190;49.770;9.250;2023-09-19T08:05:26;16.40;99.90
67273;DHT22;54190;49.770;9.250;2023-09-19T08:07:53;16.50;99.90
67273;DHT22;54190;49.770;9.250;2023-09-19T08:10:22;16.50;99.90
67273;DHT22;54190;49.770;9.250;2023-09-19T08:12:48;16.50;99.90
67273;DHT22;54190;49.770;9.250;2023-09-19T08:15:15;16.60;99.90
67273;DHT22;54190;49.770;9.250;2023-09-19T08:17:41;16.60;99.90
67273;DHT22;54190;49.770;9.250;2023-09-19T08:20:08;16.60;99.90
67273;DHT22;54190;49.770;9.250;2023-09-19T08:22:52;16.70;99.90
67273;DHT22;54190;49.770;9.250;2023-09-19T08:25:20;16.70;99.90
67273;DHT22;54190;49.770;9.250;2023-09-19T08:27:46;16.70;99.90
67273;DHT22;54190;49.770;9.250;2023-09-19T08:30:15;16.70;99.90
67273;DHT22;54190;49.770;9.250;2023-09-19T08:32:41;16.70;99.90
67273;DHT22;54190;49.770;9.250;2023-09-19T08:35:09;16.70;99.90
67273;DHT22;54190;49.770;9.250;2023-09-19T08:37:35;16.70;99.90
67273;DHT22;54190;49.770;9.250;2023-09-19T08:40:01;16.80;99.90
67273;DHT22;54190;49.770;9.250;2023-09-19T08:42:27;16.80;99.90
67273;DHT22;54190;49.770;9.250;2023-09-19T08:44:52;16.80;99.90
67273;DHT22;54190;49.770;9.250;2023-09-19T08:47:38;16.80;99.90
67273;DHT22;54190;49.770;9.250;2023-09-19T08:50:33;16.80;99.90
67273;DHT22;54190;49.770;9.250;2023-09-19T08:53:10;16.90;99.90
67273;DHT22;54190;49.770;9.250;2023-09-19T08:55:37;17.00;99.90
67273;DHT22;54190;49.770;9.250;2023-09-19T08:58:10;17.00;99.90
67273;DHT22;54190;49.770;9.250;2023-09-19T09:00:36;17.00;99.90
67273;DHT22;54190;49.770;9.250;2023-09-19T09:03:02;17.00;99.90
67273;DHT22;54190;49.770;9.250;2023-09-19T09:05:30;17.10;99.90
67273;DHT22;54190;49.770;9.250;2023-09-19T09:07:58;17.10;99.90
67273;DHT22;54190;49.770;9.250;2023-09-19T09:10:25;17.10;99.90
67273;DHT22;54190;49.770;9.250;2023-09-19T09:12:52;17.10;99.90
67273;DHT22;54190;49.770;9.250;2023-09-19T09:15:23;17.10;99.90
67273;DHT22;54190;49.770;9.250;2023-09-19T09:17:50;17.20;99.90
67273;DHT22;54190;49.770;9.250;2023-09-19T09:20:19;17.20;99.90
67273;DHT22;54190;49.770;9.250;2023-09-19T09:22:57;17.30;99.90
67273;DHT22;54190;49.770;9.250;2023-09-19T09:26:07;17.40;99.90
67273;DHT22;54190;49.770;9.250;2023-09-19T09:28:35;17.50;99.90
67273;DHT22;54190;49.770;9.250;2023-09-19T09:31:02;17.50;99.90
67273;DHT22;54190;49.770;9.250;2023-09-19T09:33:35;17.60;99.90
67273;DHT22;54190;49.770;9.250;2023-09-19T09:36:02;17.70;99.90
67273;DHT22;54190;49.770;9.250;2023-09-19T09:38:30;17.80;99.90
67273;DHT22;54190;49.770;9.250;2023-09-19T09:41:09;17.80;99.90
67273;DHT22;54190;49.770;9.250;2023-09-19T09:43:36;17.90;99.90
67273;DHT22;54190;49.770;9.250;2023-09-19T09:46:11;18.00;99.90
67273;DHT22;54190;49.770;9.250;2023-09-19T09:48:57;18.00;99.90
67273;DHT22;54190;49.770;9.250;2023-09-19T09:51:43;18.10;99.90
67273;DHT22;54190;49.770;9.250;2023-09-19T09:54:14;18.20;99.90
67273;DHT22;54190;49.770;9.250;2023-09-19T09:57:03;18.30;99.90
67273;DHT22;54190;49.770;9.250;2023-09-19T09:59:59;18.40;99.90
67273;DHT22;54190;49.770;9.250;2023-09-19T10:02:41;18.40;99.90
67273;DHT22;54190;49.770;9.250;2023-09-19T10:05:16;18.50;99.90
67273;DHT22;54190;49.770;9.250;2023-09-19T10:07:55;18.60;99.90
67273;DHT22;54190;49.770;9.250;2023-09-19T10:10:38;18.70;99.90
67273;DHT22;54190;49.770;9.250;2023-09-19T10:13:12;18.70;99.90
67273;DHT22;54190;49.770;9.250;2023-09-19T10:15:40;18.80;98.90
67273;DHT22;54190;49.770;9.250;2023-09-19T10:18:11;18.80;99.60
67273;DHT22;54190;49.770;9.250;2023-09-19T10:20:47;18.90;98.70
67273;DHT22;54190;49.770;9.250;2023-09-19T10:23:15;18.90;98.90
67273;DHT22;54190;49.770;9.250;2023-09-19T10:25:48;18.90;98.60
67273;DHT22;54190;49.770;9.250;2023-09-19T10:28:16;18.90;98.60
67273;DHT22;54190;49.770;9.250;2023-09-19T10:30:47;19.00;98.20
67273;DHT22;54190;49.770;9.250;2023-09-19T10:33:16;19.10;97.80
67273;DHT22;54190;49.770;9.250;2023-09-19T10:35:44;19.20;98.20
67273;DHT22;54190;49.770;9.250;2023-09-19T10:38:11;19.30;98.00
67273;DHT22;54190;49.770;9.250;2023-09-19T10:40:38;19.30;97.10
67273;DHT22;54190;49.770;9.250;2023-09-19T10:43:12;19.40;97.20
67273;DHT22;54190;49.770;9.250;2023-09-19T10:45:39;19.40;97.30
67273;DHT22;54190;49.770;9.250;2023-09-19T10:48:06;19.40;96.90
67273;DHT22;54190;49.770;9.250;2023-09-19T10:50:52;19.40;96.10
67273;DHT22;54190;49.770;9.250;2023-09-19T10:53:20;19.50;96.80
67273;DHT22;54190;49.770;9.250;2023-09-19T10:55:58;19.60;96.80
67273;DHT22;54190;49.770;9.250;2023-09-19T10:58:32;19.60;96.40
67273;DHT22;54190;49.770;9.250;2023-09-19T11:01:04;19.60;96.60
67273;DHT22;54190;49.770;9.250;2023-09-19T11:03:41;19.60;95.90
67273;DHT22;54190;49.770;9.250;2023-09-19T11:06:16;19.70;96.20
67273;DHT22;54190;49.770;9.250;2023-09-19T11:09:02;19.80;96.40
67273;DHT22;54190;49.770;9.250;2023-09-19T11:11:41;19.80;96.60
67273;DHT22;54190;49.770;9.250;2023-09-19T11:14:28;19.90;96.60
67273;DHT22;54190;49.770;9.250;2023-09-19T11:30:46;20.50;96.60
67273;DHT22;54190;49.770;9.250;2023-09-19T11:41:36;20.70;95.90
67273;DHT22;54190;49.770;9.250;2023-09-19T11:46:30;20.60;96.40
67273;DHT22;54190;49.770;9.250;2023-09-19T11:49:05;20.60;96.00
67273;DHT22;54190;49.770;9.250;2023-09-19T11:51:45;20.70;96.10
67273;DHT22;54190;49.770;9.250;2023-09-19T11:54:12;20.60;96.00
67273;DHT22;54190;49.770;9.250;2023-09-19T11:56:43;20.60;96.30
67273;DHT22;54190;49.770;9.250;2023-09-19T11:59:11;20.70;95.80
67273;DHT22;54190;49.770;9.250;2023-09-19T12:01:38;20.80;95.00
67273;DHT22;54190;49.770;9.250;2023-09-19T12:04:11;20.70;95.40
67273;DHT22;54190;49.770;9.250;2023-09-19T12:06:38;20.70;95.70
67273;DHT22;54190;49.770;9.250;2023-09-19T12:09:13;20.90;96.20
67273;DHT22;54190;49.770;9.250;2023-09-19T12:11:42;20.90;94.90
67273;DHT22;54190;49.770;9.250;2023-09-19T12:14:20;21.00;94.70
67273;DHT22;54190;49.770;9.250;2023-09-19T12:16:57;21.00;95.40
67273;DHT22;54190;49.770;9.250;2023-09-19T12:19:24;21.10;94.30
67273;DHT22;54190;49.770;9.250;2023-09-19T12:21:57;21.10;95.00
67273;DHT22;54190;49.770;9.250;2023-09-19T12:24:26;21.20;95.20
67273;DHT22;54190;49.770;9.250;2023-09-19T12:26:59;21.20;95.10
67273;DHT22;54190;49.770;9.250;2023-09-19T12:29:30;21.30;94.60
67273;DHT22;54190;49.770;9.250;2023-09-19T12:32:00;21.40;95.10
67273;DHT22;54190;49.770;9.250;2023-09-19T12:34:32;21.30;94.30
67273;DHT22;54190;49.770;9.250;2023-09-19T12:37:12;21.30;94.40
67273;DHT22;54190;49.770;9.250;2023-09-19T12:39:45;21.40;94.10
67273;DHT22;54190;49.770;9.250;2023-09-19T12:42:25;21.60;94.50
67273;DHT22;54190;49.770;9.250;2023-09-19T12:44:55;21.70;94.00
67273;DHT22;54190;49.770;9.250;2023-09-19T12:47:23;21.80;93.70
67273;DHT22;54190;49.770;9.250;2023-09-19T12:50:15;21.80;93.90
67273;DHT22;54190;49.770;9.250;2023-09-19T12:52:44;21.80;93.10
67273;DHT22;54190;49.770;9.250;2023-09-19T12:55:31;21.80;92.90
67273;DHT22;54190;49.770;9.250;2023-09-19T12:58:07;21.80;92.20
67273;DHT22;54190;49.770;9.250;2023-09-19T13:00:45;21.90;93.30
67273;DHT22;54190;49.770;9.250;2023-09-19T13:03:15;21.90;91.70
67273;DHT22;54190;49.770;9.250;2023-09-19T13:06:04;21.80;91.20
67273;DHT22;54190;49.770;9.250;2023-09-19T13:08:31;21.90;92.50
67273;DHT22;54190;49.770;9.250;2023-09-19T13:11:14;22.00;92.80
67273;DHT22;54190;49.770;9.250;2023-09-19T13:14:13;22.20;92.70
67273;DHT22;54190;49.770;9.250;2023-09-19T13:16:56;22.30;92.80
67273;DHT22;54190;49.770;9.250;2023-09-19T13:19:47;22.40;92.50
67273;DHT22;54190;49.770;9.250;2023-09-19T13:22:41;22.40;92.10
67273;DHT22;54190;49.770;9.250;2023-09-19T13:25:23;22.50;92.10
67273;DHT22;54190;49.770;9.250;2023-09-19T13:27:56;22.60;92.10
67273;DHT22;54190;49.770;9.250;2023-09-19T13:30:24;22.70;91.00
67273;DHT22;54190;49.770;9.250;2023-09-19T13:33:08;22.80;91.60
67273;DHT22;54190;49.770;9.250;2023-09-19T13:35:35;22.80;90.70
67273;DHT22;54190;49.770;9.250;2023-09-19T13:38:04;22.90;91.40
67273;DHT22;54190;49.770;9.250;2023-09-19T13:40:29;23.10;91.70
67273;DHT22;54190;49.770;9.250;2023-09-19T13:42:56;23.10;91.20
67273;DHT22;54190;49.770;9.250;2023-09-19T13:45:22;23.10;91.20
67273;DHT22;54190;49.770;9.250;2023-09-19T13:47:50;23.10;91.10
67273;DHT22;54190;49.770;9.250;2023-09-19T13:50:16;23.00;90.00
67273;DHT22;54190;49.770;9.250;2023-09-19T13:52:42;22.90;91.30
67273;DHT22;54190;49.770;9.250;2023-09-19T13:55:08;22.90;91.00
67273;DHT22;54190;49.770;9.250;2023-09-19T13:57:34;22.80;90.50
67273;DHT22;54190;49.770;9.250;2023-09-19T13:59:59;22.70;90.50
67273;DHT22;54190;49.770;9.250;2023-09-19T14:02:25;22.70;90.70
67273;DHT22;54190;49.770;9.250;2023-09-19T14:04:51;22.70;90.30
67273;DHT22;54190;49.770;9.250;2023-09-19T14:07:17;22.70;90.00
67273;DHT22;54190;49.770;9.250;2023-09-19T14:09:44;22.60;90.70
67273;DHT22;54190;49.770;9.250;2023-09-19T14:12:10;22.60;90.50
67273;DHT22;54190;49.770;9.250;2023-09-19T14:14:36;22.70;91.20
67273;DHT22;54190;49.770;9.250;2023-09-19T14:17:03;22.70;92.10
67273;DHT22;54190;49.770;9.250;2023-09-19T14:19:29;22.80;90.40
67273;DHT22;54190;49.770;9.250;2023-09-19T14:21:55;22.80;90.40
67273;DHT22;54190;49.770;9.250;2023-09-19T14:24:21;22.90;91.60
67273;DHT22;54190;49.770;9.250;2023-09-19T14:26:48;22.90;89.90
67273;DHT22;54190;49.770;9.250;2023-09-19T14:29:14;22.80;90.10
67273;DHT22;54190;49.770;9.250;2023-09-19T14:31:41;22.70;89.20
67273;DHT22;54190;49.770;9.250;2023-09-19T14:34:07;22.70;90.70
67273;DHT22;54190;49.770;9.250;2023-09-19T14:36:35;22.70;90.80
67273;DHT22;54190;49.770;9.250;2023-09-19T14:39:01;22.70;90.30
67273;DHT22;54190;49.770;9.250;2023-09-19T14:41:26;22.70;91.10
67273;DHT22;54190;49.770;9.250;2023-09-19T14:43:52;22.70;90.20
67273;DHT22;54190;49.770;9.250;2023-09-19T14:46:18;22.70;91.20
67273;DHT22;54190;49.770;9.250;2023-09-19T14:48:45;22.70;90.10
67273;DHT22;54190;49.770;9.250;2023-09-19T14:51:14;22.50;90.50
67273;DHT22;54190;49.770;9.250;2023-09-19T14:53:40;22.40;90.50
67273;DHT22;54190;49.770;9.250;2023-09-19T14:56:10;22.20;90.30
67273;DHT22;54190;49.770;9.250;2023-09-19T14:58:36;22.10;90.90
67273;DHT22;54190;49.770;9.250;2023-09-19T15:01:07;22.10;91.60
67273;DHT22;54190;49.770;9.250;2023-09-19T15:03:34;22.00;91.30
67273;DHT22;54190;49.770;9.250;2023-09-19T15:06:05;21.90;91.10
67273;DHT22;54190;49.770;9.250;2023-09-19T15:08:32;21.90;91.00
67273;DHT22;54190;49.770;9.250;2023-09-19T15:11:00;21.90;91.20
67273;DHT22;54190;49.770;9.250;2023-09-19T15:13:30;21.80;91.60
67273;DHT22;54190;49.770;9.250;2023-09-19T15:16:06;21.80;91.40
67273;DHT22;54190;49.770;9.250;2023-09-19T15:18:36;21.80;91.70
67273;DHT22;54190;49.770;9.250;2023-09-19T15:21:10;21.80;91.60
67273;DHT22;54190;49.770;9.250;2023-09-19T15:23:37;21.70;91.80
67273;DHT22;54190;49.770;9.250;2023-09-19T15:26:14;21.60;92.20
67273;DHT22;54190;49.770;9.250;2023-09-19T15:28:42;21.50;91.50
67273;DHT22;54190;49.770;9.250;2023-09-19T15:31:10;21.50;92.50
67273;DHT22;54190;49.770;9.250;2023-09-19T15:33:36;21.50;92.70
67273;DHT22;54190;49.770;9.250;2023-09-19T15:36:15;21.40;93.00
67273;DHT22;54190;49.770;9.250;2023-09-19T15:41:27;21.40;93.20
67273;DHT22;54190;49.770;9.250;2023-09-19T15:43:53;21.40;93.00
67273;DHT22;54190;49.770;9.250;2023-09-19T15:46:20;21.30;92.70
67273;DHT22;54190;49.770;9.250;2023-09-19T15:48:46;21.30;93.60
67273;DHT22;54190;49.770;9.250;2023-09-19T15:51:12;21.30;93.80
67273;DHT22;54190;49.770;9.250;2023-09-19T15:53:45;21.20;93.30
67273;DHT22;54190;49.770;9.250;2023-09-19T15:56:11;21.20;93.30
67273;DHT22;54190;49.770;9.250;2023-09-19T15:58:40;21.30;93.70
67273;DHT22;54190;49.770;9.250;2023-09-19T16:01:07;21.20;94.30
67273;DHT22;54190;49.770;9.250;2023-09-19T16:03:42;21.30;94.00
67273;DHT22;54190;49.770;9.250;2023-09-19T16:06:13;21.30;93.80
67273;DHT22;54190;49.770;9.250;2023-09-19T16:08:43;21.30;94.00
67273;DHT22;54190;49.770;9.250;2023-09-19T16:11:09;21.30;93.70
67273;DHT22;54190;49.770;9.250;2023-09-19T16:13:39;21.30;94.40
67273;DHT22;54190;49.770;9.250;2023-09-19T16:16:07;21.30;94.30
67273;DHT22;54190;49.770;9.250;2023-09-19T16:18:34;21.30;93.90
67273;DHT22;54190;49.770;9.250;2023-09-19T16:21:03;21.30;94.30
67273;DHT22;54190;49.770;9.250;2023-09-19T16:23:30;21.30;94.20
67273;DHT22;54190;49.770;9.250;2023-09-19T16:26:05;21.30;94.00